Flight Track Log - Related Links

Times and Time Zones

All times are in EDT time to prevent confusion due to time zone crossing. See the N498QS flight status page for this flight to view local times or setup timezone preferences in your user account.

Time Position Orientation Groundspeed Altitude Reporting Facility
EDT Latitude Longitude Course Direction KTS km/h feet Rate Location/Type
Sat 08:18:15 AM 31.2608 -81.4683 85° East 67 124 200  Level Jacksonville Center
Sat 08:19:15 AM 31.2625 -81.4442 85° East 73 135 500 1.415 Climbing Jacksonville Center
Sat 08:22:04 AM 31.3686 -81.4181 12° North 349 647 5.600 1.965 Climbing Jacksonville Center
Sat 08:23:04 AM 31.4500 -81.3950 14° North 260 481 8.000 1.200 Climbing Jacksonville Center
Sat 08:24:04 AM 31.5186 -81.3742 15° North 259 480 8.000 500 Level Jacksonville Center
Sat 08:25:04 AM 31.5914 -81.3561 12° North 259 480 9.000 1.513 Climbing Jacksonville Center
Sat 08:26:03 AM 31.6664 -81.3328 15° North 264 489 11.000 1.500 Climbing Jacksonville Center
Sat 08:27:04 AM 31.7433 -81.3119 13° North 278 515 12.000 500 Climbing Jacksonville Center
Sat 08:28:03 AM 31.8244 -81.2886 14° North 315 583 12.000 550 Level Jacksonville Center
Sat 08:29:04 AM 31.9325 -81.2597 13° North 351 650 13.100 2.400 Climbing Jacksonville Center
Sat 08:30:03 AM 32.0283 -81.2336 13° North 352 652 16.800 3.328 Climbing Jacksonville Center
Sat 08:31:03 AM 32.1261 -81.2072 13° North 352 652 19.700 2.826 Climbing Jacksonville Center
Sat 08:32:04 AM 32.2306 -81.2078 360° North 358 663 22.500 1.636 Climbing Jacksonville Center
Sat 08:33:04 AM 32.3372 -81.2206 354° North 382 708 23.000 252 Climbing Jacksonville Center
Sat 08:34:03 AM 32.4186 -81.2314 354° North 349 647 23.000  Level Jacksonville Center
Sat 08:35:04 AM 32.5086 -81.2419 354° North 303 562 23.000  Level Jacksonville Center
Sat 08:36:04 AM 32.5944 -81.2553 353° North 329 610 23.000 50 Level Jacksonville Center
Sat 08:37:04 AM 32.7114 -81.2681 355° North 371 687 23.100 1.450 Climbing Jacksonville Center
Sat 08:38:04 AM 32.8222 -81.2858 352° North 389 721 25.900 2.900 Climbing Jacksonville Center
Sat 08:39:04 AM 32.9311 -81.3036 352° North 394 729 28.900 2.750 Climbing Jacksonville Center
Sat 08:40:04 AM 33.0419 -81.3214 352° North 394 729 31.400 2.250 Climbing Jacksonville Center
Sat 08:41:04 AM 33.1258 -81.3572 340° North 389 721 33.400 1.966 Climbing Jacksonville Center
Sat 08:42:03 AM 33.2331 -81.4200 334° Northwest 389 721 35.300 2.150 Climbing Jacksonville Center
Sat 08:43:04 AM 33.3317 -81.4781 334° Northwest 389 721 37.700 2.182 Climbing Jacksonville Center
Sat 08:44:04 AM 33.4425 -81.4911 354° North 381 705 39.700 1.462 Climbing Jacksonville Center
Sat 08:45:03 AM 33.5511 -81.4994 356° North 381 705 40.600 400 Climbing Jacksonville Center
Sat 08:46:04 AM 33.6703 -81.5050 358° North 403 747 40.500 -50 Descending Jacksonville Center
Sat 08:47:04 AM 33.7589 -81.4086 42° Northeast 393 727 40.500 -50 Level Jacksonville Center
Sat 08:48:04 AM 33.7111 -81.2572 111° Southeast 334 618 40.400 -50 Descending Jacksonville Center
Sat 08:49:04 AM 33.5686 -81.2275 170° South 315 583 40.400 -850 Level Jacksonville Center
Sat 08:50:04 AM 33.4250 -81.2400 184° South 425 787 38.700 -1.916 Descending Jacksonville Center
Sat 08:51:03 AM 33.2811 -81.2600 187° South 462 856 36.600 -2.200 Descending Jacksonville Center
Sat 08:52:04 AM 33.1353 -81.2753 185° South 508 941 34.300 -2.727 Descending Jacksonville Center
Sat 08:53:04 AM 32.9728 -81.2931 185° South 539 998 31.100 -2.874 Descending Jacksonville Center
Sat 08:54:03 AM 32.8308 -81.3078 185° South 534 990 28.600 -2.550 Descending Jacksonville Center
Sat 08:55:04 AM 32.6933 -81.3228 185° South 515 954 26.000 -2.281 Descending Jacksonville Center
Sat 08:56:04 AM 32.5619 -81.3397 186° South 485 898 24.000 -1.100 Descending Jacksonville Center
Sat 08:57:04 AM 32.4431 -81.3517 185° South 476 882 23.800 -1.650 Descending Jacksonville Center
Sat 08:58:04 AM 32.2950 -81.3614 183° South 487 901 20.700 -3.150 Descending Jacksonville Center
Sat 08:59:04 AM 32.1761 -81.3758 186° South 456 845 17.500 -3.400 Descending Jacksonville Center
Sat 09:00:04 AM 32.0575 -81.3875 185° South 436 808 13.900 -3.200 Descending Jacksonville Center
Sat 09:01:04 AM 31.9469 -81.3992 185° South 417 772 11.100 -1.450 Descending Jacksonville Center
Sat 09:02:04 AM 31.8531 -81.4081 185° South 386 715 11.000 -100 Descending Jacksonville Center
Sat 09:03:04 AM 31.7467 -81.4169 184° South 356 660 10.900 -700 Descending Jacksonville Center
Sat 09:04:04 AM 31.6717 -81.4281 187° South 329 610 9.600 -1.600 Descending Jacksonville Center
Sat 09:05:04 AM 31.5861 -81.4342 183° South 292 541 7.700 -1.950 Descending Jacksonville Center
Sat 09:06:04 AM 31.5194 -81.4400 184° South 263 488 5.700 -2.000 Descending Jacksonville Center

Login

Don't have an account? Register now (free) for customized features, flight alerts, and more!